Time;durP1;ratioP1;P1;durP2;ratioP2;P2;SDS_P1;SDS_P2;PMS_P1;PMS_P2;Temp;Humidity;BMP_temperature;BMP_pressure;BME280_temperature;BME280_humidity;BME280_pressure;Samples;Min_cycle;Max_cycle;Signal;HPM_P1;HPM_P2
2023/05/20 06:11:20;;;;;;;23.33;17.70;;;11.00;99.90;;;;;;5131544;27;20291;-77
2023/05/20 06:20:57;;;;;;;20.57;16.00;;;11.20;99.90;;;;;;5131484;27;20295;-77
2023/05/20 06:28:53;;;;;;;18.17;15.23;;;12.80;99.90;;;;;;5132440;27;20267;-77
2023/05/20 06:34:53;;;;;;;19.77;13.87;;;11.50;99.90;;;;;;5133138;27;20271;-78
2023/05/20 06:41:51;;;;;;;17.13;14.07;;;11.60;99.90;;;;;;5132470;27;20314;-78
2023/05/20 06:49:23;;;;;;;15.97;13.20;;;11.60;99.90;;;;;;5132327;27;20271;-77
2023/05/20 06:54:04;;;;;;;18.00;12.67;;;11.70;99.90;;;;;;5132222;27;20275;-77
2023/05/20 06:58:15;;;;;;;15.63;12.20;;;12.30;99.90;;;;;;5132644;27;20283;-77
2023/05/20 07:02:11;;;;;;;14.57;11.17;;;12.20;99.90;;;;;;5132076;27;20289;-78
2023/05/20 07:06:13;;;;;;;12.50;10.23;;;12.40;99.90;;;;;;5111713;27;20559;-77
2023/05/20 07:10:09;;;;;;;16.33;10.80;;;12.20;99.90;;;;;;5131863;27;20651;-77
2023/05/20 07:12:35;;;;;;;17.47;11.30;;;;;;;;;;5131912;27;20171;-80
2023/05/20 07:15:02;;;;;;;14.10;10.33;;;;;;;;;;5132497;28;20167;-77
2023/05/20 07:17:28;;;;;;;12.33;10.70;;;12.60;99.90;;;;;;5130846;28;20202;-79
2023/05/20 07:19:55;;;;;;;12.07;10.40;;;12.70;99.90;;;;;;5131302;28;20633;-78
2023/05/20 07:22:21;;;;;;;11.90;10.03;;;12.80;99.90;;;;;;5131645;27;20261;-78
2023/05/20 07:24:47;;;;;;;11.77;10.57;;;12.80;99.90;;;;;;5131892;27;20175;-78
2023/05/20 07:27:12;;;;;;;12.73;9.93;;;12.90;99.90;;;;;;5130434;28;20236;-77
2023/05/20 07:29:38;;;;;;;12.73;10.70;;;12.90;99.90;;;;;;5130685;28;20733;-77
2023/05/20 07:32:04;;;;;;;11.87;10.10;;;12.90;99.90;;;;;;5132698;27;20219;-77
2023/05/20 07:34:30;;;;;;;13.87;10.53;;;12.90;99.90;;;;;;5132542;27;20199;-80
2023/05/20 07:36:56;;;;;;;11.93;10.30;;;13.00;99.90;;;;;;5130998;28;20179;-78
2023/05/20 07:39:22;;;;;;;11.67;9.30;;;13.00;99.90;;;;;;5131015;28;20183;-78
2023/05/20 07:41:48;;;;;;;12.23;9.50;;;13.10;99.90;;;;;;5130598;28;20202;-78
2023/05/20 07:44:17;;;;;;;11.90;10.47;;;13.10;99.90;;;;;;5132428;28;20182;-78
2023/05/20 07:46:43;;;;;;;12.50;9.70;;;13.10;99.90;;;;;;5131117;28;20534;-78
2023/05/20 07:49:09;;;;;;;13.37;9.73;;;13.30;99.90;;;;;;5132251;27;20195;-78
2023/05/20 07:51:35;;;;;;;12.47;9.73;;;13.40;99.90;;;;;;5132194;27;20218;-78
2023/05/20 07:54:00;;;;;;;11.60;9.73;;;13.80;99.90;;;;;;5131889;27;20232;-77
2023/05/20 07:56:27;;;;;;;9.87;8.90;;;14.00;99.90;;;;;;5131387;27;20206;-77
2023/05/20 07:58:55;;;;;;;11.30;9.80;;;14.10;99.90;;;;;;5130252;28;20178;-78
2023/05/20 08:01:20;;;;;;;12.03;10.07;;;14.20;99.90;;;;;;5129684;28;20217;-77
2023/05/20 08:03:46;;;;;;;10.43;9.27;;;14.30;99.90;;;;;;5131591;27;20183;-78
2023/05/20 08:06:12;;;;;;;12.53;10.03;;;14.30;99.90;;;;;;5131080;27;20179;-78
2023/05/20 08:08:40;;;;;;;11.93;9.77;;;14.20;99.90;;;;;;5130882;27;20203;-78
2023/05/20 08:11:06;;;;;;;11.87;10.23;;;14.30;99.90;;;;;;5130882;27;20705;-77
2023/05/20 08:13:32;;;;;;;11.87;9.40;;;14.50;99.90;;;;;;5130908;27;20217;-78
2023/05/20 08:15:57;;;;;;;12.60;9.13;;;14.70;99.90;;;;;;5129937;28;20678;-77
2023/05/20 08:18:23;;;;;;;10.53;8.40;;;15.00;99.90;;;;;;5130908;27;20320;-78
2023/05/20 08:20:50;;;;;;;11.37;8.87;;;15.20;99.90;;;;;;5119626;28;20215;-78
2023/05/20 08:23:16;;;;;;;10.20;9.10;;;15.20;99.90;;;;;;5115775;28;20183;-78
2023/05/20 08:25:41;;;;;;;12.43;9.03;;;15.30;99.90;;;;;;5118487;28;20533;-80
2023/05/20 08:28:08;;;;;;;9.50;8.60;;;15.00;99.90;;;;;;5116899;28;20256;-78
2023/05/20 08:30:33;;;;;;;9.33;8.33;;;15.20;99.90;;;;;;5115573;28;20195;-78
2023/05/20 08:33:00;;;;;;;12.23;8.90;;;15.80;99.90;;;;;;5116443;28;20183;-77
2023/05/20 08:35:26;;;;;;;10.77;9.60;;;16.70;99.90;;;;;;5117018;28;20176;-78
2023/05/20 08:37:52;;;;;;;9.73;8.77;;;16.40;99.90;;;;;;5117125;28;20669;-78
2023/05/20 08:40:19;;;;;;;11.43;8.47;;;16.30;99.90;;;;;;5117694;28;20279;-78
2023/05/20 08:42:48;;;;;;;10.30;8.73;;;16.20;99.90;;;;;;5118177;28;20190;-78
2023/05/20 08:45:16;;;;;;;13.27;8.50;;;15.90;99.90;;;;;;5116703;28;20651;-78
2023/05/20 08:47:43;;;;;;;9.50;8.47;;;15.60;99.90;;;;;;5116922;28;20183;-77
2023/05/20 08:50:10;;;;;;;9.17;8.27;;;15.40;99.90;;;;;;5116276;28;20196;-78
2023/05/20 08:52:41;;;;;;;9.37;8.33;;;15.20;99.90;;;;;;5116256;28;20645;-78
2023/05/20 08:55:10;;;;;;;11.83;8.57;;;15.30;99.90;;;;;;5116465;28;20196;-77
2023/05/20 08:57:37;;;;;;;9.10;7.90;;;15.50;99.90;;;;;;5117977;28;20164;-78
2023/05/20 09:00:08;;;;;;;11.77;8.10;;;15.70;99.90;;;;;;5117309;28;20263;-78
2023/05/20 09:02:37;;;;;;;10.27;7.83;;;15.80;99.90;;;;;;5117763;28;20174;-77
2023/05/20 09:05:03;;;;;;;9.13;8.13;;;15.80;99.90;;;;;;5116267;28;20176;-78
2023/05/20 09:07:30;;;;;;;8.40;7.57;;;15.80;99.90;;;;;;5115676;28;20227;-78
2023/05/20 09:09:56;;;;;;;9.33;7.83;;;15.80;99.90;;;;;;5115394;28;20232;-78
2023/05/20 09:12:22;;;;;;;9.97;7.40;;;15.80;99.90;;;;;;5115448;28;20179;-77
2023/05/20 09:14:48;;;;;;;8.43;7.50;;;15.80;99.90;;;;;;5116616;28;20251;-77
2023/05/20 09:17:14;;;;;;;8.57;7.53;;;15.80;99.90;;;;;;5116737;28;20168;-78
2023/05/20 09:19:40;;;;;;;7.13;6.43;;;16.40;99.90;;;;;;5116083;28;20242;-77
2023/05/20 09:22:06;;;;;;;11.20;7.03;;;17.00;99.90;;;;;;5115432;28;20176;-77
2023/05/20 09:24:31;;;;;;;8.40;7.47;;;16.90;99.90;;;;;;5116564;28;20199;-77
2023/05/20 09:26:57;;;;;;;10.53;7.00;;;16.60;99.90;;;;;;5115200;28;20685;-78
2023/05/20 09:29:23;;;;;;;7.40;6.60;;;16.80;99.90;;;;;;5115993;28;20280;-77
2023/05/20 09:31:50;;;;;;;7.47;6.77;;;16.80;99.90;;;;;;5114664;28;20184;-77
2023/05/20 09:34:16;;;;;;;10.17;7.27;;;16.70;99.90;;;;;;5114705;28;20179;-78
2023/05/20 09:36:46;;;;;;;7.97;7.17;;;16.70;99.90;;;;;;5115473;28;20255;-78
2023/05/20 09:39:16;;;;;;;7.93;7.13;;;16.80;99.90;;;;;;5114204;28;20188;-78
2023/05/20 09:42:11;;;;;;;10.33;7.77;;;17.00;99.90;;;;;;5115645;28;20205;-78
2023/05/20 09:44:38;;;;;;;9.20;7.57;;;17.00;99.90;;;;;;5116651;28;20196;-78
2023/05/20 09:47:06;;;;;;;7.40;6.67;;;17.00;99.90;;;;;;5117031;28;20160;-78
2023/05/20 09:49:34;;;;;;;9.53;6.67;;;17.00;99.90;;;;;;5115328;28;20335;-78
2023/05/20 09:52:02;;;;;;;8.20;7.33;;;17.00;99.90;;;;;;5115316;28;20195;-78
2023/05/20 09:54:28;;;;;;;9.27;7.30;;;17.20;99.90;;;;;;5117407;28;20175;-78
2023/05/20 09:56:58;;;;;;;10.53;7.17;;;17.40;99.90;;;;;;5117441;28;20165;-78
2023/05/20 09:59:25;;;;;;;8.63;7.73;;;17.50;99.90;;;;;;5116028;28;20261;-78
2023/05/20 10:01:51;;;;;;;9.60;7.67;;;17.60;99.90;;;;;;5115912;28;20196;-78
2023/05/20 10:04:19;;;;;;;8.70;7.77;;;17.70;99.90;;;;;;5115676;28;20276;-79
2023/05/20 10:07:13;;;;;;;9.27;8.13;;;17.80;99.90;;;;;;5116656;28;20174;-78
2023/05/20 10:09:59;;;;;;;9.90;7.63;;;17.90;99.90;;;;;;5115348;28;20259;-78
2023/05/20 10:12:42;;;;;;;11.03;7.90;;;18.40;99.90;;;;;;5116566;28;20178;-78
2023/05/20 10:15:43;;;;;;;8.73;7.23;;;18.50;99.90;;;;;;5116860;28;20190;-79
2023/05/20 10:18:22;;;;;;;9.33;8.33;;;18.60;99.90;;;;;;5091714;28;20186;-78
2023/05/20 10:20:50;;;;;;;9.77;8.77;;;18.50;99.90;;;;;;5115044;28;20201;-78
2023/05/20 10:23:29;;;;;;;10.37;7.40;;;18.50;99.90;;;;;;5116679;28;20281;-78
2023/05/20 10:25:56;;;;;;;9.00;7.87;;;18.50;99.90;;;;;;5115134;28;20185;-78
2023/05/20 10:28:35;;;;;;;9.67;7.83;;;18.50;99.90;;;;;;5116925;28;20191;-78
2023/05/20 10:31:02;;;;;;;9.17;8.00;;;19.40;99.90;;;;;;5116763;28;20219;-78
2023/05/20 10:33:29;;;;;;;8.67;7.60;;;19.30;99.90;;;;;;5117022;28;20195;-78
2023/05/20 10:35:59;;;;;;;10.27;8.20;;;19.00;99.90;;;;;;5116980;28;20179;-78
2023/05/20 10:38:25;;;;;;;8.07;7.27;;;18.70;99.90;;;;;;5116777;28;20167;-78
2023/05/20 10:40:51;;;;;;;9.47;7.90;;;18.60;99.90;;;;;;5114999;28;20299;-78
2023/05/20 10:43:27;;;;;;;9.27;8.37;;;18.20;99.90;;;;;;5116316;27;20179;-78
2023/05/20 10:45:56;;;;;;;10.63;8.40;;;17.70;99.90;;;;;;5115223;28;20281;-78
2023/05/20 10:48:30;;;;;;;9.60;8.60;;;17.50;99.90;;;;;;5115529;28;20203;-78
2023/05/20 10:51:05;;;;;;;9.77;8.77;;;17.30;99.90;;;;;;5116365;28;20235;-78
2023/05/20 10:53:43;;;;;;;11.07;8.83;;;17.50;99.90;;;;;;5116988;28;20199;-79
2023/05/20 10:56:21;;;;;;;13.77;9.33;;;17.80;99.90;;;;;;5117330;28;20177;-78
2023/05/20 10:58:47;;;;;;;11.27;8.90;;;18.30;99.90;;;;;;5118713;28;20198;-78
2023/05/20 11:01:14;;;;;;;9.67;8.70;;;18.90;99.90;;;;;;5115856;28;20196;-78
2023/05/20 11:03:40;;;;;;;13.20;9.43;;;19.40;99.90;;;;;;5114188;28;20182;-78
2023/05/20 11:06:17;;;;;;;10.27;8.67;;;20.00;99.90;;;;;;5116370;28;20178;-78
2023/05/20 11:08:43;;;;;;;11.30;8.80;;;20.40;99.90;;;;;;5115803;28;20233;-78
2023/05/20 11:11:13;;;;;;;8.80;7.83;;;21.00;99.90;;;;;;5115493;28;20230;-78
2023/05/20 11:13:39;;;;;;;10.23;8.53;;;21.70;99.90;;;;;;5115062;28;20653;-78
2023/05/20 11:16:05;;;;;;;9.73;8.73;;;22.10;99.90;;;;;;5117103;28;20588;-78
2023/05/20 11:18:32;;;;;;;9.83;8.23;;;22.20;99.90;;;;;;5116987;28;20181;-78
2023/05/20 11:20:59;;;;;;;9.97;8.07;;;22.50;99.90;;;;;;5115185;28;20214;-78
2023/05/20 11:23:26;;;;;;;13.53;7.87;;;22.60;99.90;;;;;;5115680;28;20638;-78
2023/05/20 11:25:53;;;;;;;9.17;8.00;;;22.70;99.90;;;;;;5115230;28;20209;-78
2023/05/20 11:28:22;;;;;;;9.83;8.40;;;22.50;99.90;;;;;;5116061;28;20199;-78
2023/05/20 11:30:52;;;;;;;11.80;8.90;;;22.20;99.90;;;;;;5115585;28;20818;-78
2023/05/20 11:33:18;;;;;;;10.20;8.87;;;22.00;99.90;;;;;;5116185;28;20177;-78
2023/05/20 11:35:48;;;;;;;13.40;8.60;;;21.60;99.90;;;;;;5115938;28;20630;-78
2023/05/20 11:38:15;;;;;;;10.37;9.03;;;21.30;99.90;;;;;;5114664;28;20169;-78
2023/05/20 11:40:51;;;;;;;9.60;8.60;;;21.00;99.90;;;;;;5114005;28;20187;-78
2023/05/20 11:43:17;;;;;;;10.80;9.70;;;20.90;99.90;;;;;;5114548;28;20239;-78
2023/05/20 11:45:45;;;;;;;10.30;9.20;;;21.10;99.90;;;;;;5116095;28;20601;-78
2023/05/20 11:48:11;;;;;;;11.83;9.57;;;21.10;99.90;;;;;;5114358;28;20688;-78
2023/05/20 11:50:39;;;;;;;10.40;8.73;;;21.20;99.90;;;;;;5115634;28;20262;-78
2023/05/20 11:53:10;;;;;;;12.10;9.63;;;21.20;99.90;;;;;;5116182;28;20514;-78
2023/05/20 11:55:48;;;;;;;10.17;8.20;;;21.50;99.90;;;;;;5117433;28;20257;-78
2023/05/20 11:58:23;;;;;;;10.23;9.03;;;21.30;99.90;;;;;;5120195;28;20178;-78
2023/05/20 12:00:50;;;;;;;12.20;9.63;;;21.00;99.90;;;;;;5118237;28;20290;-78
2023/05/20 12:03:16;;;;;;;16.80;9.60;;;20.70;99.90;;;;;;5118527;28;20183;-78
2023/05/20 12:05:42;;;;;;;13.77;8.83;;;20.60;99.90;;;;;;5121490;28;20189;-79
2023/05/20 12:08:08;;;;;;;10.33;9.23;;;20.40;99.90;;;;;;5119473;28;20217;-79
2023/05/20 12:10:35;;;;;;;11.10;9.30;;;20.10;99.90;;;;;;5118982;28;20193;-79
2023/05/20 12:13:02;;;;;;;9.53;8.13;;;20.60;99.90;;;;;;5120039;28;20241;-78
2023/05/20 12:15:28;;;;;;;9.20;8.03;;;21.10;99.90;;;;;;5119504;28;20185;-78
2023/05/20 12:17:54;;;;;;;8.90;8.00;;;21.30;99.90;;;;;;5118804;28;20206;-78
2023/05/20 12:20:23;;;;;;;10.53;8.87;;;21.10;99.90;;;;;;5119575;28;20184;-78
2023/05/20 12:22:49;;;;;;;12.37;8.60;;;21.50;99.90;;;;;;5119726;28;20169;-78
2023/05/20 12:25:17;;;;;;;7.97;6.80;;;21.80;99.90;;;;;;5119700;28;20314;-78
2023/05/20 12:27:47;;;;;;;6.77;6.07;;;21.90;99.90;;;;;;5117228;28;20176;-78
2023/05/20 12:30:16;;;;;;;7.63;6.60;;;22.50;99.90;;;;;;5118919;28;20204;-78
2023/05/20 12:32:42;;;;;;;7.63;6.93;;;23.90;99.90;;;;;;5118431;28;20173;-78
2023/05/20 12:35:09;;;;;;;10.20;6.53;;;24.80;99.90;;;;;;5119993;28;20180;-78
2023/05/20 12:37:36;;;;;;;6.03;5.43;;;25.40;99.90;;;;;;5118677;28;20167;-78
2023/05/20 12:40:07;;;;;;;6.17;5.57;;;25.20;99.90;;;;;;5117554;28;20177;-78
2023/05/20 12:42:36;;;;;;;5.63;5.13;;;25.20;99.90;;;;;;5117667;28;20170;-79
2023/05/20 12:45:02;;;;;;;5.73;5.20;;;25.20;99.90;;;;;;5116362;28;20173;-78
2023/05/20 12:47:29;;;;;;;6.33;4.80;;;25.60;99.90;;;;;;5116621;28;20247;-78
2023/05/20 12:49:55;;;;;;;6.37;4.93;;;25.80;99.90;;;;;;5117173;28;20210;-78
2023/05/20 12:52:20;;;;;;;7.97;5.13;;;25.90;99.90;;;;;;5119990;28;20243;-78
2023/05/20 12:54:46;;;;;;;5.17;4.50;;;26.40;99.90;;;;;;5120478;28;20173;-78
2023/05/20 12:57:11;;;;;;;5.80;4.37;;;26.50;98.80;;;;;;5120212;28;20172;-79
2023/05/20 12:59:37;;;;;;;5.17;3.90;;;26.20;99.00;;;;;;5118270;28;20174;-78
2023/05/20 13:02:03;;;;;;;8.03;4.67;;;25.90;99.90;;;;;;5119849;28;20195;-80
2023/05/20 13:04:29;;;;;;;4.63;4.23;;;25.90;96.30;;;;;;5119089;27;20202;-79
2023/05/20 13:06:54;;;;;;;3.97;3.53;;;25.80;98.10;;;;;;5118514;28;20279;-78
2023/05/20 13:09:20;;;;;;;5.93;3.50;;;26.00;98.90;;;;;;5119356;28;20793;-79
2023/05/20 13:11:46;;;;;;;3.83;3.40;;;26.60;98.10;;;;;;5119645;28;20187;-79
2023/05/20 13:14:11;;;;;;;5.73;3.97;;;26.70;96.80;;;;;;5119052;28;20647;-79
2023/05/20 13:16:37;;;;;;;4.17;3.50;;;27.00;96.70;;;;;;5119249;28;20531;-79
2023/05/20 13:19:03;;;;;;;4.43;3.17;;;27.20;96.30;;;;;;5120026;28;20176;-79
2023/05/20 13:21:30;;;;;;;3.50;3.20;;;27.30;95.70;;;;;;5118920;28;20191;-78
2023/05/20 13:23:56;;;;;;;5.30;3.67;;;27.40;93.90;;;;;;5119205;28;20193;-79
2023/05/20 13:26:22;;;;;;;3.10;2.80;;;26.80;93.30;;;;;;5119525;28;20180;-79
2023/05/20 13:28:48;;;;;;;3.23;2.80;;;26.70;93.40;;;;;;5119993;28;20195;-78
2023/05/20 13:31:14;;;;;;;3.30;2.80;;;26.60;93.20;;;;;;5118606;28;20188;-78
2023/05/20 13:33:39;;;;;;;2.77;2.57;;;26.90;93.60;;;;;;5115136;28;20210;-77
2023/05/20 13:36:05;;;;;;;3.30;2.70;;;27.40;92.90;;;;;;5115643;28;20180;-77
2023/05/20 13:38:31;;;;;;;3.07;2.80;;;26.90;92.30;;;;;;5117675;28;20171;-79
2023/05/20 13:40:58;;;;;;;4.90;2.90;;;26.60;92.20;;;;;;5118586;28;20196;-79
2023/05/20 13:43:25;;;;;;;4.13;2.47;;;25.90;93.60;;;;;;5118568;28;20258;-79
2023/05/20 13:45:51;;;;;;;6.00;2.90;;;25.30;94.30;;;;;;5118317;28;20167;-79
2023/05/20 13:48:17;;;;;;;3.50;2.47;;;24.70;94.80;;;;;;5116966;28;20199;-78
2023/05/20 13:50:42;;;;;;;4.07;2.43;;;24.30;95.30;;;;;;5119038;28;20275;-78
2023/05/20 13:53:12;;;;;;;3.90;2.10;;;23.80;94.60;;;;;;5116453;28;20175;-79
2023/05/20 13:55:37;;;;;;;2.40;2.20;;;23.50;95.80;;;;;;5118341;28;20170;-78
2023/05/20 13:58:04;;;;;;;5.27;2.67;;;23.40;95.20;;;;;;5118549;28;20168;-78
2023/05/20 14:00:30;;;;;;;3.93;2.37;;;23.40;95.40;;;;;;5118292;28;20719;-78
2023/05/20 14:02:56;;;;;;;3.73;2.00;;;23.60;95.10;;;;;;5117888;27;20166;-78
2023/05/20 14:05:22;;;;;;;2.63;2.30;;;23.60;95.60;;;;;;5117313;28;20177;-78
2023/05/20 14:07:48;;;;;;;2.60;2.37;;;23.90;94.30;;;;;;5115616;28;20172;-78
2023/05/20 14:10:13;;;;;;;6.33;2.20;;;23.80;94.40;;;;;;5117851;28;20206;-78
2023/05/20 14:12:41;;;;;;;3.93;2.07;;;23.90;95.50;;;;;;5118048;28;20577;-78
2023/05/20 14:15:07;;;;;;;4.63;2.40;;;24.20;95.60;;;;;;5118143;28;20180;-78
2023/05/20 14:17:33;;;;;;;3.37;2.10;;;24.10;93.30;;;;;;5118283;28;20179;-78
2023/05/20 14:19:59;;;;;;;2.23;1.90;;;23.80;94.50;;;;;;5117637;28;20566;-78
2023/05/20 14:22:25;;;;;;;4.57;2.40;;;23.60;95.50;;;;;;5117258;28;20216;-79
2023/05/20 14:24:50;;;;;;;2.97;2.30;;;23.30;94.30;;;;;;5116478;28;20171;-79
2023/05/20 14:27:16;;;;;;;4.47;2.47;;;23.10;94.20;;;;;;5116219;28;20257;-79
2023/05/20 14:29:41;;;;;;;2.47;2.00;;;23.40;94.60;;;;;;5116572;28;20198;-79
2023/05/20 14:32:07;;;;;;;2.97;1.97;;;23.50;93.10;;;;;;5116045;28;20199;-78
2023/05/20 14:34:33;;;;;;;2.20;2.00;;;23.40;92.50;;;;;;5116682;28;20180;-78
2023/05/20 14:37:04;;;;;;;2.40;2.20;;;23.30;94.90;;;;;;5116774;28;20196;-78
2023/05/20 14:39:29;;;;;;;3.33;2.37;;;23.40;93.90;;;;;;5116798;28;20236;-79
2023/05/20 14:41:55;;;;;;;3.10;2.20;;;23.10;94.50;;;;;;5115269;28;20207;-78
2023/05/20 14:44:21;;;;;;;4.53;2.10;;;23.10;95.90;;;;;;5116521;28;20168;-78
2023/05/20 14:46:46;;;;;;;4.40;2.30;;;23.10;93.80;;;;;;5115178;28;20171;-78
2023/05/20 14:49:12;;;;;;;6.17;3.33;;;23.00;95.20;;;;;;5116877;28;20264;-79
2023/05/20 14:51:38;;;;;;;2.50;2.30;;;22.90;95.00;;;;;;5116302;28;20185;-78
2023/05/20 14:54:04;;;;;;;2.50;2.20;;;23.10;95.00;;;;;;5116049;28;20186;-78
2023/05/20 14:56:30;;;;;;;2.40;2.20;;;23.10;94.30;;;;;;5114289;28;20171;-78
2023/05/20 14:58:56;;;;;;;5.60;2.27;;;23.00;93.40;;;;;;5115947;28;20201;-78
2023/05/20 15:01:21;;;;;;;3.10;2.23;;;23.00;93.40;;;;;;5115430;28;20192;-78
2023/05/20 15:03:47;;;;;;;3.43;2.27;;;23.30;93.60;;;;;;5114430;28;20175;-78
2023/05/20 15:06:13;;;;;;;3.50;2.20;;;23.90;92.60;;;;;;5115004;28;20168;-78
2023/05/20 15:08:38;;;;;;;2.37;2.17;;;24.40;90.90;;;;;;5115164;28;20677;-79
2023/05/20 15:11:04;;;;;;;2.57;2.10;;;24.40;90.90;;;;;;5114920;28;20196;-79
2023/05/20 15:13:30;;;;;;;3.50;2.47;;;24.40;92.70;;;;;;5116955;28;20178;-79
2023/05/20 15:15:55;;;;;;;3.07;2.60;;;24.50;91.40;;;;;;5118132;28;20220;-79
2023/05/20 15:18:21;;;;;;;3.00;2.70;;;24.50;91.60;;;;;;5116661;28;20176;-79
2023/05/20 15:20:46;;;;;;;3.03;2.37;;;24.30;91.10;;;;;;5115957;28;20193;-78
2023/05/20 15:23:12;;;;;;;3.13;2.83;;;24.10;91.50;;;;;;5116502;28;20187;-80
2023/05/20 15:25:38;;;;;;;3.03;2.83;;;23.60;92.90;;;;;;5115821;28;20177;-78
2023/05/20 15:28:04;;;;;;;6.33;2.67;;;23.40;93.20;;;;;;5116367;28;20236;-78
2023/05/20 15:30:29;;;;;;;2.93;2.60;;;23.30;93.00;;;;;;5116551;28;20625;-78
2023/05/20 15:32:55;;;;;;;3.40;3.07;;;22.90;93.20;;;;;;5120082;28;20257;-78
2023/05/20 15:35:21;;;;;;;3.40;3.00;;;22.60;94.10;;;;;;5119645;28;20532;-79
2023/05/20 15:37:47;;;;;;;3.40;3.10;;;22.40;93.50;;;;;;5120322;28;20645;-78
2023/05/20 15:40:13;;;;;;;3.80;3.00;;;22.20;94.10;;;;;;5119430;28;20625;-78
2023/05/20 15:42:38;;;;;;;4.27;3.50;;;22.00;94.70;;;;;;5119983;28;20249;-78
2023/05/20 15:45:04;;;;;;;3.83;3.43;;;21.70;94.60;;;;;;5119232;28;20168;-78
2023/05/20 15:47:30;;;;;;;9.67;8.37;;;21.60;94.80;;;;;;5118649;28;20174;-78
2023/05/20 15:49:56;;;;;;;6.57;3.90;;;21.50;95.10;;;;;;5117464;28;20195;-77
2023/05/20 15:52:22;;;;;;;5.80;3.73;;;21.40;95.40;;;;;;5116621;28;20187;-78
2023/05/20 15:54:47;;;;;;;4.40;4.00;;;21.40;95.70;;;;;;5118887;28;20167;-78
2023/05/20 15:57:13;;;;;;;4.70;4.20;;;21.30;95.80;;;;;;5119133;28;20168;-78
2023/05/20 15:59:39;;;;;;;4.10;3.70;;;21.10;96.10;;;;;;5117767;28;20176;-78
2023/05/20 16:02:05;;;;;;;4.97;4.20;;;21.10;96.70;;;;;;5119153;28;20245;-77
2023/05/20 16:04:31;;;;;;;7.33;4.53;;;21.10;96.90;;;;;;5119029;28;20178;-78
2023/05/20 16:06:56;;;;;;;8.37;3.87;;;21.10;96.60;;;;;;5116687;28;20183;-78
2023/05/20 16:09:22;;;;;;;6.30;4.33;;;21.00;96.80;;;;;;5118213;28;20237;-78
2023/05/20 16:11:48;;;;;;;8.77;4.43;;;20.90;96.40;;;;;;5115776;28;20230;-77
2023/05/20 16:14:13;;;;;;;7.40;4.80;;;20.80;96.50;;;;;;5116388;28;20195;-78
2023/05/20 16:16:39;;;;;;;4.60;3.93;;;20.80;97.40;;;;;;5119006;28;20593;-79
2023/05/20 16:19:05;;;;;;;6.67;4.70;;;20.80;97.00;;;;;;5117140;28;20176;-77
2023/05/20 16:21:30;;;;;;;6.23;4.07;;;20.70;97.30;;;;;;5117628;27;20195;-78
2023/05/20 16:23:56;;;;;;;5.40;4.73;;;20.70;97.90;;;;;;5116750;28;20175;-78
2023/05/20 16:26:22;;;;;;;5.73;4.57;;;20.70;98.30;;;;;;5118424;28;20251;-79
2023/05/20 16:28:47;;;;;;;8.13;5.27;;;20.60;99.20;;;;;;5116285;28;20593;-78
2023/05/20 16:31:13;;;;;;;7.03;4.67;;;20.50;98.80;;;;;;5115898;28;20244;-77
2023/05/20 16:33:39;;;;;;;8.00;5.70;;;20.50;99.20;;;;;;5117497;28;20168;-78
2023/05/20 16:36:05;;;;;;;6.47;5.23;;;20.50;99.50;;;;;;5117557;28;20637;-78
2023/05/20 16:38:33;;;;;;;6.40;5.30;;;20.40;99.80;;;;;;5117113;28;20184;-78
2023/05/20 16:40:59;;;;;;;6.80;5.27;;;20.40;99.90;;;;;;5115423;28;20565;-77
2023/05/20 16:43:25;;;;;;;6.67;5.97;;;20.30;99.90;;;;;;5116782;28;20263;-78
2023/05/20 16:45:50;;;;;;;7.20;5.93;;;20.30;99.90;;;;;;5117990;28;20646;-78
2023/05/20 16:48:16;;;;;;;9.47;6.20;;;20.20;99.90;;;;;;5118130;28;20176;-78
2023/05/20 16:50:42;;;;;;;10.33;6.10;;;20.20;99.90;;;;;;5118284;28;20219;-78
2023/05/20 16:53:07;;;;;;;6.90;5.80;;;20.00;99.90;;;;;;5119521;28;20525;-78
2023/05/20 16:55:33;;;;;;;6.43;5.50;;;20.00;99.90;;;;;;5120179;28;20602;-78
2023/05/20 16:57:58;;;;;;;5.83;5.27;;;19.90;99.90;;;;;;5120554;28;20175;-79
2023/05/20 17:00:25;;;;;;;9.70;5.87;;;19.90;99.90;;;;;;5119430;28;20276;-78
2023/05/20 17:02:51;;;;;;;6.40;5.80;;;19.80;99.90;;;;;;5117057;27;20186;-78
2023/05/20 17:05:17;;;;;;;7.60;5.47;;;19.70;99.90;;;;;;5116706;28;20184;-78
2023/05/20 17:07:42;;;;;;;7.53;5.97;;;19.80;99.90;;;;;;5118900;28;20188;-78
2023/05/20 17:10:08;;;;;;;8.60;6.30;;;19.70;99.90;;;;;;5118059;28;20264;-78
2023/05/20 17:12:34;;;;;;;10.10;6.70;;;19.70;99.90;;;;;;5119814;28;20554;-78
2023/05/20 17:15:00;;;;;;;10.47;5.70;;;19.60;99.90;;;;;;5119538;28;20251;-78
2023/05/20 17:17:26;;;;;;;7.43;5.97;;;19.60;99.90;;;;;;5117432;28;20233;-78
2023/05/20 17:19:51;;;;;;;8.70;6.17;;;19.60;99.90;;;;;;5118598;28;20182;-78
2023/05/20 17:22:17;;;;;;;7.70;6.23;;;19.60;99.90;;;;;;5119362;28;20250;-78
2023/05/20 17:24:43;;;;;;;7.33;6.00;;;19.60;99.90;;;;;;5117128;28;20637;-78
2023/05/20 17:27:08;;;;;;;7.40;6.47;;;19.50;99.90;;;;;;5119024;28;20639;-78
2023/05/20 17:29:34;;;;;;;12.20;6.93;;;19.40;99.90;;;;;;5116955;28;20679;-78
2023/05/20 17:32:00;;;;;;;7.57;6.50;;;19.50;99.90;;;;;;5117151;28;20262;-78
2023/05/20 17:34:25;;;;;;;9.00;6.80;;;19.40;99.90;;;;;;5117343;28;20253;-79
2023/05/20 17:36:51;;;;;;;8.00;7.00;;;19.40;99.90;;;;;;5117417;28;20175;-79
2023/05/20 17:39:17;;;;;;;11.17;6.70;;;19.30;99.90;;;;;;5118845;28;20178;-78
